Date,TemperatureHighF,TemperatureAvgF,TemperatureLowF,DewpointHighF,DewpointAvgF,DewpointLowF,HumidityHigh,HumidityAvg,HumidityLow,PressureMaxIn,PressureMinIn,WindSpeedMaxMPH,WindSpeedAvgMPH,GustSpeedMaxMPH,PrecipitationSumIn
2013-1-1,29,23,16,28,18,13,95,83,70,30.33,30.16,13,1,13,0.00
2013-1-2,33,21,12,19,14,10,92,76,44,30.35,30.24,6,0,6,0.00
2013-1-3,39,30,18,28,24,16,94,79,61,30.45,30.27,16,2,16,0.01
2013-1-4,40,30,21,26,23,19,92,75,52,30.49,30.35,13,1,13,0.00
2013-1-5,46,37,26,33,28,21,83,68,53,30.36,30.13,12,1,12,0.05
2013-1-6,42,32,22,34,26,19,90,76,59,30.44,30.11,18,4,21,0.00
2013-1-7,46,34,21,30,26,18,93,73,51,30.45,30.19,10,1,11,0.00
2013-1-8,54,41,28,38,29,24,87,64,36,30.25,30.12,10,0,10,0.00
2013-1-9,56,48,41,44,38,33,89,68,45,30.50,30.20,13,1,13,0.01
2013-1-10,57,47,42,57,43,32,99,87,61,30.48,29.80,15,2,16,0.54
2013-1-11,64,56,50,57,50,47,99,82,60,29.90,29.78,18,1,18,0.00
2013-1-12,57,48,32,51,41,30,95,80,56,29.98,29.81,14,2,14,0.45
2013-1-13,32,25,17,30,21,14,95,87,79,30.43,29.94,15,2,16,0.00
2013-1-14,26,20,16,18,16,13,93,82,67,30.58,30.42,7,1,7,0.00
2013-1-15,30,24,15,23,19,13,94,83,69,30.49,30.20,8,0,9,0.00
2013-1-16,42,30,17,26,21,15,93,72,45,30.23,30.07,10,1,18,0.01
2013-1-17,40,33,23,30,26,20,89,74,51,30.53,30.17,15,2,15,0.00
2013-1-18,55,39,22,30,25,19,92,61,33,30.55,30.16,15,1,15,0.00
2013-1-19,64,51,41,37,33,29,63,51,35,30.17,29.93,21,4,21,0.00
2013-1-20,46,31,25,32,18,11,79,57,47,30.38,30.15,21,2,21,0.00
2013-1-21,25,20,15,15,5,-3,75,53,35,30.46,30.35,22,5,22,0.00
2013-1-22,18,15,13,12,7,1,89,71,54,30.56,30.44,7,1,7,0.00
2013-1-23,41,27,13,26,18,10,92,72,54,30.45,30.20,11,1,12,0.01
2013-1-24,28,22,16,18,10,3,74,59,50,30.67,30.31,16,2,21,0.00
2013-1-25,43,34,27,24,19,11,60,53,45,30.33,30.16,15,2,15,0.00
2013-1-26,39,32,23,24,18,13,75,58,39,30.45,30.28,10,1,10,0.00
2013-1-27,52,38,30,50,34,20,97,87,65,30.35,29.99,17,2,17,0.17
2013-1-28,74,63,51,63,58,49,97,86,66,30.00,29.84,13,1,13,0.00
2013-1-29,67,62,53,62,58,52,98,90,78,29.84,29.42,22,2,22,1.28
2013-1-30,53,40,27,52,35,18,98,83,65,29.95,29.36,30,7,30,0.17
2013-1-31,32,25,12,24,15,0,84,67,52,30.45,29.95,24,7,27,0.00